PWSweather.com
Personal Weather Stations
Station Observations
KTXDECATUR
Wildwood, Decatur, TX 76234

WildwoodDecatur, TX 76234

Lat: 33.2634, Lon: -97.6651

Elevation: 800

Station Type: Davis Vantage Pro 2

http://weather.wildwoodnaturist.com

Latest ConditionsUpdated 5:15:00 AM CDT Saturday, May 25, 2019
Currently Today's Max Today's Min Today's Average
Temperature 72.7°F22.6°C 77.1°F25.1°C 72.5°F22.5°C 74.8°F23.8°C
Dew Point 68.2°F20.1°C 68.6°F20.3°C 67.6°F19.8°C 68.2°F20.1°C
Winds 12.7 mph SE20.4 kmh SE 12.7 mph -20.4 kmh - - 5.7 mph 9.2 kmh
Wind Gusts 18.4 mph29.6 kmh 18.4 mph29.6 kmh - -
Humidity 86% 87% 73% 80%
Pressure 29.90 in1012.5 mb 29.92 in1013.2 mb 29.88 in1011.9 mb -
Hour Temp Dew Point Humidity Winds Wind Gusts Pressure Precip Precip Rate Daily Precip Total
05:15 AM 72.7°F22.6°C 68.2°F20.1°C 86% 12.7 mph SE20.4 kmh SE 18.4 mph29.6 kmh 29.90 in1012.5 mb - 0.00 in0.0 mm 0.00 in0.0 mm
05:10 AM 72.7°F22.6°C 68.3°F20.2°C 86% 11.5 mph SE18.5 kmh SE 15.0 mph24.1 kmh 29.90 in1012.5 mb - 0.00 in0.0 mm 0.00 in0.0 mm
05:00 AM 72.8°F22.7°C 68.4°F20.2°C 86% 8.1 mph SE13.0 kmh SE 15.0 mph24.1 kmh 29.90 in1012.5 mb - 0.00 in0.0 mm 0.00 in0.0 mm
04:50 AM 72.5°F22.5°C 68.4°F20.2°C 87% 12.7 mph SE20.4 kmh SE 13.8 mph22.2 kmh 29.90 in1012.5 mb - 0.00 in0.0 mm 0.00 in0.0 mm
04:45 AM 72.5°F22.5°C 68.4°F20.2°C 87% 8.1 mph SE13.0 kmh SE 9.2 mph14.8 kmh 29.90 in1012.5 mb - 0.00 in0.0 mm 0.00 in0.0 mm
04:40 AM 72.6°F22.6°C 68.2°F20.1°C 86% 10.4 mph SE16.7 kmh SE 13.8 mph22.2 kmh 29.90 in1012.5 mb - 0.00 in0.0 mm 0.00 in0.0 mm
04:30 AM 72.7°F22.6°C 68.3°F20.2°C 86% 8.1 mph SE13.0 kmh SE 9.2 mph14.8 kmh 29.90 in1012.5 mb - 0.00 in0.0 mm 0.00 in0.0 mm
04:20 AM 72.8°F22.7°C 68.0°F20.0°C 85% 4.6 mph SE7.4 kmh SE 5.8 mph9.3 kmh 29.91 in1012.9 mb - 0.00 in0.0 mm 0.00 in0.0 mm
04:15 AM 72.9°F22.7°C 68.1°F20.1°C 85% 6.9 mph SE11.1 kmh SE 6.9 mph11.1 kmh 29.91 in1012.9 mb - 0.00 in0.0 mm 0.00 in0.0 mm
04:10 AM 73.0°F22.8°C 68.2°F20.1°C 85% 4.6 mph SE7.4 kmh SE 5.8 mph9.3 kmh 29.91 in1012.9 mb - 0.00 in0.0 mm 0.00 in0.0 mm
04:00 AM 73.3°F22.9°C 68.2°F20.1°C 84% 5.8 mph SE9.3 kmh SE 8.1 mph13.0 kmh 29.91 in1012.9 mb - 0.00 in0.0 mm 0.00 in0.0 mm
03:50 AM 73.4°F23.0°C 68.3°F20.2°C 84% 5.8 mph SE9.3 kmh SE 5.8 mph9.3 kmh 29.91 in1012.9 mb - 0.00 in0.0 mm 0.00 in0.0 mm
03:45 AM 73.6°F23.1°C 68.1°F20.1°C 83% 4.6 mph SE7.4 kmh SE 6.9 mph11.1 kmh 29.91 in1012.9 mb - 0.00 in0.0 mm 0.00 in0.0 mm
03:40 AM 73.7°F23.2°C 68.2°F20.1°C 83% 4.6 mph SE7.4 kmh SE 6.9 mph11.1 kmh 29.91 in1012.9 mb - 0.00 in0.0 mm 0.00 in0.0 mm
03:30 AM 74.0°F23.3°C 68.2°F20.1°C 82% 5.8 mph SE9.3 kmh SE 8.1 mph13.0 kmh 29.91 in1012.9 mb - 0.00 in0.0 mm 0.00 in0.0 mm
03:20 AM 74.1°F23.4°C 68.3°F20.2°C 82% 4.6 mph SE7.4 kmh SE 6.9 mph11.1 kmh 29.92 in1013.2 mb - 0.00 in0.0 mm 0.00 in0.0 mm
03:15 AM 74.4°F23.6°C 68.2°F20.1°C 81% 4.6 mph SSE7.4 kmh SSE 8.1 mph13.0 kmh 29.92 in1013.2 mb - 0.00 in0.0 mm 0.00 in0.0 mm
03:10 AM 74.5°F23.6°C 68.3°F20.2°C 81% 5.8 mph S9.3 kmh S 4.6 mph7.4 kmh 29.92 in1013.2 mb - 0.00 in0.0 mm 0.00 in0.0 mm
03:00 AM 74.8°F23.8°C 68.6°F20.3°C 81% 4.6 mph SE7.4 kmh SE 6.9 mph11.1 kmh 29.92 in1013.2 mb - 0.00 in0.0 mm 0.00 in0.0 mm
02:50 AM 75.1°F23.9°C 68.5°F20.3°C 80% 4.6 mph SE7.4 kmh SE 8.1 mph13.0 kmh 29.91 in1012.9 mb - 0.00 in0.0 mm 0.00 in0.0 mm
02:45 AM 75.1°F23.9°C 68.5°F20.3°C 80% 5.8 mph SE9.3 kmh SE 8.1 mph13.0 kmh 29.91 in1012.9 mb - 0.00 in0.0 mm 0.00 in0.0 mm
02:40 AM 75.0°F23.9°C 68.4°F20.2°C 80% 5.8 mph SE9.3 kmh SE 6.9 mph11.1 kmh 29.91 in1012.9 mb - 0.00 in0.0 mm 0.00 in0.0 mm
02:30 AM 75.2°F24.0°C 68.6°F20.3°C 80% 5.8 mph SE9.3 kmh SE 8.1 mph13.0 kmh 29.91 in1012.9 mb - 0.00 in0.0 mm 0.00 in0.0 mm
02:20 AM 75.3°F24.1°C 68.3°F20.2°C 79% 4.6 mph SE7.4 kmh SE 8.1 mph13.0 kmh 29.91 in1012.9 mb - 0.00 in0.0 mm 0.00 in0.0 mm
02:15 AM 75.5°F24.2°C 68.5°F20.3°C 79% 3.5 mph SE5.6 kmh SE 4.6 mph7.4 kmh 29.91 in1012.9 mb - 0.00 in0.0 mm 0.00 in0.0 mm
02:10 AM 75.4°F24.1°C 68.5°F20.3°C 79% 4.6 mph SSE7.4 kmh SSE 6.9 mph11.1 kmh 29.91 in1012.9 mb - 0.00 in0.0 mm 0.00 in0.0 mm
02:00 AM 75.5°F24.2°C 68.5°F20.3°C 79% 5.8 mph SE9.3 kmh SE 8.1 mph13.0 kmh 29.91 in1012.9 mb - 0.00 in0.0 mm 0.00 in0.0 mm
01:50 AM 75.2°F24.0°C 68.2°F20.1°C 79% 5.8 mph SE9.3 kmh SE 5.8 mph9.3 kmh 29.91 in1012.9 mb - 0.00 in0.0 mm 0.00 in0.0 mm
01:45 AM 75.3°F24.1°C 68.0°F20.0°C 78% 3.5 mph ESE5.6 kmh ESE 4.6 mph7.4 kmh 29.91 in1012.9 mb - 0.00 in0.0 mm 0.00 in0.0 mm
01:40 AM 75.2°F24.0°C 67.9°F19.9°C 78% 4.6 mph E7.4 kmh E 8.1 mph13.0 kmh 29.90 in1012.5 mb - 0.00 in0.0 mm 0.00 in0.0 mm
01:30 AM 75.7°F24.3°C 68.0°F20.0°C 77% 2.3 mph E3.7 kmh E 3.5 mph5.6 kmh 29.91 in1012.9 mb - 0.00 in0.0 mm 0.00 in0.0 mm
01:20 AM 76.2°F24.6°C 68.1°F20.1°C 76% 2.3 mph E3.7 kmh E 4.6 mph7.4 kmh 29.91 in1012.9 mb - 0.00 in0.0 mm 0.00 in0.0 mm
01:15 AM 76.3°F24.6°C 68.2°F20.1°C 76% 2.3 mph ESE3.7 kmh ESE 3.5 mph5.6 kmh 29.91 in1012.9 mb - 0.00 in0.0 mm 0.00 in0.0 mm
01:10 AM 76.6°F24.8°C 68.1°F20.1°C 75% 3.5 mph E5.6 kmh E 6.9 mph11.1 kmh 29.91 in1012.9 mb - 0.00 in0.0 mm 0.00 in0.0 mm
01:00 AM 76.8°F24.9°C 67.9°F19.9°C 74% 3.5 mph SE5.6 kmh SE 3.5 mph5.6 kmh 29.91 in1012.9 mb - 0.00 in0.0 mm 0.00 in0.0 mm
12:50 AM 77.0°F25.0°C 68.1°F20.1°C 74% 3.5 mph S5.6 kmh S 5.8 mph9.3 kmh 29.90 in1012.5 mb - 0.00 in0.0 mm 0.00 in0.0 mm
12:45 AM 76.9°F24.9°C 68.0°F20.0°C 74% 4.6 mph SSE7.4 kmh SSE 5.8 mph9.3 kmh 29.90 in1012.5 mb - 0.00 in0.0 mm 0.00 in0.0 mm
12:40 AM 76.8°F24.9°C 67.9°F19.9°C 74% 9.2 mph S14.8 kmh S 10.4 mph16.7 kmh 29.88 in1011.9 mb - 0.00 in0.0 mm 0.00 in0.0 mm
12:30 AM 76.8°F24.9°C 67.9°F19.9°C 74% 5.8 mph E9.3 kmh E 8.1 mph13.0 kmh 29.89 in1012.2 mb - 0.00 in0.0 mm 0.00 in0.0 mm
12:20 AM 76.9°F24.9°C 67.6°F19.8°C 73% 6.9 mph ESE11.1 kmh ESE 9.2 mph14.8 kmh 29.89 in1012.2 mb - 0.00 in0.0 mm 0.00 in0.0 mm
12:15 AM 77.1°F25.1°C 67.8°F19.9°C 73% 4.6 mph ESE7.4 kmh ESE 5.8 mph9.3 kmh 29.90 in1012.5 mb - 0.00 in0.0 mm 0.00 in0.0 mm
12:10 AM 77.1°F25.1°C 67.8°F19.9°C 73% 5.8 mph ESE9.3 kmh ESE 8.1 mph13.0 kmh 29.90 in1012.5 mb - 0.00 in0.0 mm 0.00 in0.0 mm
12:00 AM 77.0°F25.0°C 67.7°F19.8°C 73% 4.6 mph ESE7.4 kmh ESE 8.1 mph13.0 kmh 29.90 in1012.5 mb - 0.00 in0.0 mm 0.00 in0.0 mm